createdAt,value
2023-03-12T00:02:10.044Z,93749.50
2023-03-12T00:04:36.761Z,93761.34
2023-03-12T00:07:06.697Z,93762.72
2023-03-12T00:09:38.876Z,93766.41
2023-03-12T00:12:06.473Z,93764.59
2023-03-12T00:14:33.661Z,93763.06
2023-03-12T00:17:00.345Z,93762.84
2023-03-12T00:19:27.644Z,93763.41
2023-03-12T00:21:54.579Z,93761.00
2023-03-12T00:24:21.218Z,93767.31
2023-03-12T00:26:47.978Z,93769.94
2023-03-12T00:29:14.872Z,93763.41
2023-03-12T00:31:41.767Z,93766.03
2023-03-12T00:34:09.703Z,93767.63
2023-03-12T00:36:36.385Z,93755.25
2023-03-12T00:39:03.497Z,93758.44
2023-03-12T00:41:30.659Z,93759.72
2023-03-12T00:43:57.829Z,93767.63
2023-03-12T00:46:25.048Z,93767.09
2023-03-12T00:48:52.187Z,93760.50
2023-03-12T00:51:20.015Z,93753.41
2023-03-12T00:53:46.785Z,93759.97
2023-03-12T00:56:13.463Z,93756.56
2023-03-12T00:58:42.742Z,93761.56
2023-03-12T01:01:09.808Z,93768.13
2023-03-12T01:03:36.804Z,93752.63
2023-03-12T01:06:04.098Z,93763.16
2023-03-12T01:08:31.085Z,93743.47
2023-03-12T01:10:57.806Z,93767.41
2023-03-12T01:13:24.630Z,93761.88
2023-03-12T01:15:51.441Z,93768.72
2023-03-12T01:18:18.151Z,93765.81
2023-03-12T01:20:44.965Z,93759.53
2023-03-12T01:23:11.704Z,93760.31
2023-03-12T01:25:38.537Z,93749.03
2023-03-12T01:28:05.693Z,93764.25
2023-03-12T01:30:32.785Z,93767.41
2023-03-12T01:32:59.704Z,93752.97
2023-03-12T01:35:26.819Z,93757.16
2023-03-12T01:37:55.754Z,93758.47
2023-03-12T01:40:28.957Z,93742.47
2023-03-12T01:42:58.281Z,93757.19
2023-03-12T01:45:56.413Z,93755.56
2023-03-12T01:48:23.662Z,93751.91
2023-03-12T01:50:50.655Z,93752.16
2023-03-12T01:53:18.958Z,93758.19
2023-03-12T01:55:46.089Z,93753.47
2023-03-12T01:58:13.113Z,93769.25
2023-03-12T02:00:39.973Z,93767.66
2023-03-12T02:03:08.652Z,93757.16
2023-03-12T02:05:51.473Z,93755.56
2023-03-12T02:08:18.833Z,93761.34
2023-03-12T02:10:46.041Z,93769.78
2023-03-12T02:13:14.007Z,93752.94
2023-03-12T02:15:45.410Z,93767.94
2023-03-12T02:18:17.504Z,93775.56
2023-03-12T02:21:06.408Z,93771.88
2023-03-12T02:24:03.658Z,93771.34
2023-03-12T02:26:33.292Z,93765.03
2023-03-12T02:29:01.912Z,93761.88
2023-03-12T02:31:35.099Z,93768.41
2023-03-12T02:34:02.076Z,93763.94
2023-03-12T02:36:28.882Z,93766.84
2023-03-12T02:38:56.535Z,93761.84
2023-03-12T02:41:53.826Z,93764.72
2023-03-12T02:44:31.263Z,93764.72
2023-03-12T02:47:00.263Z,93772.03
2023-03-12T02:49:33.082Z,93768.91
2023-03-12T02:52:00.301Z,93749.47
2023-03-12T02:54:27.922Z,93767.84
2023-03-12T02:56:55.180Z,93773.59
2023-03-12T02:59:28.765Z,93769.66
2023-03-12T03:01:59.222Z,93770.69
2023-03-12T03:04:29.444Z,93777.03
2023-03-12T03:06:56.445Z,93777.28
2023-03-12T03:09:24.513Z,93773.88
2023-03-12T03:11:51.215Z,93769.97
2023-03-12T03:14:18.792Z,93773.13
2023-03-12T03:16:48.554Z,93781.25
2023-03-12T03:19:15.175Z,93791.50
2023-03-12T03:21:41.934Z,93790.97
2023-03-12T03:24:08.638Z,93775.47
2023-03-12T03:26:35.508Z,93777.28
2023-03-12T03:29:02.637Z,93781.22
2023-03-12T03:31:29.417Z,93770.19
2023-03-12T03:33:56.251Z,93781.69
2023-03-12T03:36:23.409Z,93780.88
2023-03-12T03:39:00.412Z,93774.00
2023-03-12T03:41:29.162Z,93774.53
2023-03-12T03:43:58.548Z,93778.97
2023-03-12T03:46:26.121Z,93774.22
2023-03-12T03:48:58.325Z,93770.53
2023-03-12T03:51:25.036Z,93768.38
2023-03-12T03:53:57.077Z,93768.88
2023-03-12T03:56:23.888Z,93774.16
2023-03-12T03:58:50.620Z,93770.19
2023-03-12T04:01:19.354Z,93767.81
2023-03-12T04:03:47.177Z,93769.66
2023-03-12T04:06:13.958Z,93767.53
2023-03-12T04:08:41.326Z,93767.25
2023-03-12T04:11:17.785Z,93767.50
2023-03-12T04:13:45.641Z,93759.09
2023-03-12T04:16:15.313Z,93760.38
2023-03-12T04:18:43.571Z,93759.28
2023-03-12T04:21:13.142Z,93762.41
2023-03-12T04:23:41.110Z,93756.09
2023-03-12T04:26:09.574Z,93765.28
2023-03-12T04:28:37.275Z,93753.44
2023-03-12T04:31:07.264Z,93761.31
2023-03-12T04:33:41.126Z,93761.25
2023-03-12T04:36:09.996Z,93767.28
2023-03-12T04:38:39.970Z,93771.47
2023-03-12T04:41:10.761Z,93754.63
2023-03-12T04:43:41.428Z,93766.56
2023-03-12T04:46:09.309Z,93765.91
2023-03-12T04:48:37.745Z,93768.06
2023-03-12T04:51:05.821Z,93773.63
2023-03-12T04:53:33.100Z,93775.78
2023-03-12T04:56:00.003Z,93770.53
2023-03-12T04:58:28.372Z,93763.16
2023-03-12T05:00:55.078Z,93756.59
2023-03-12T05:03:22.105Z,93758.19
2023-03-12T05:05:48.958Z,93748.19
2023-03-12T05:08:15.892Z,93747.38
2023-03-12T05:10:45.466Z,93750.44
2023-03-12T05:13:20.036Z,93753.28
2023-03-12T05:15:48.587Z,93750.81
2023-03-12T05:18:15.381Z,93754.41
2023-03-12T05:20:42.384Z,93756.16
2023-03-12T05:23:09.557Z,93754.75
2023-03-12T05:25:40.470Z,93756.31
2023-03-12T05:28:07.559Z,93759.47
2023-03-12T05:30:35.755Z,93765.31
2023-03-12T05:33:02.549Z,93758.50
2023-03-12T05:35:29.320Z,93764.56
2023-03-12T05:37:56.107Z,93781.72
2023-03-12T05:40:22.986Z,93779.31
2023-03-12T05:42:49.709Z,93774.78
2023-03-12T05:45:19.731Z,93770.91
2023-03-12T05:47:50.001Z,93776.44
2023-03-12T05:50:17.803Z,93771.22
2023-03-12T05:52:44.630Z,93769.13
2023-03-12T05:55:11.331Z,93773.28
2023-03-12T05:57:38.141Z,93772.34
2023-03-12T06:00:06.014Z,93773.34
2023-03-12T06:02:40.195Z,93778.28
2023-03-12T06:05:09.678Z,93777.69
2023-03-12T06:07:36.470Z,93765.03
2023-03-12T06:10:03.666Z,93767.31
2023-03-12T06:12:30.504Z,93767.28
2023-03-12T06:14:58.047Z,93753.78
2023-03-12T06:17:24.729Z,93749.75
2023-03-12T06:19:52.937Z,93762.31
2023-03-12T06:22:20.773Z,93760.97
2023-03-12T06:24:48.620Z,93747.22
2023-03-12T06:27:17.124Z,93755.13
2023-03-12T06:29:43.997Z,93767.22
2023-03-12T06:32:10.623Z,93763.44
2023-03-12T06:34:37.242Z,93763.38
2023-03-12T06:37:03.914Z,93769.69
2023-03-12T06:39:30.718Z,93768.00
2023-03-12T06:41:57.420Z,93771.84
2023-03-12T06:44:24.033Z,93768.38
2023-03-12T06:46:50.733Z,93775.22
2023-03-12T06:49:17.453Z,93776.25
2023-03-12T06:51:44.115Z,93781.94
2023-03-12T06:54:10.780Z,93779.25
2023-03-12T06:56:38.276Z,93778.59
2023-03-12T06:59:04.967Z,93784.69
2023-03-12T07:01:31.723Z,93778.47
2023-03-12T07:03:58.410Z,93788.06
2023-03-12T07:06:25.424Z,93777.13
2023-03-12T07:08:52.806Z,93774.91
2023-03-12T07:11:19.474Z,93769.25
2023-03-12T07:13:46.416Z,93763.09
2023-03-12T07:16:15.212Z,93763.25
2023-03-12T07:18:42.282Z,93772.75
2023-03-12T07:21:08.992Z,93772.75
2023-03-12T07:23:35.667Z,93768.72
2023-03-12T07:26:05.684Z,93777.16
2023-03-12T07:28:32.321Z,93777.09
2023-03-12T07:31:03.970Z,93778.41
2023-03-12T07:33:30.740Z,93772.91
2023-03-12T07:35:57.663Z,93772.91
2023-03-12T07:38:24.766Z,93771.22
2023-03-12T07:40:53.018Z,93764.28
2023-03-12T07:43:21.619Z,93769.19
2023-03-12T07:45:50.132Z,93767.84
2023-03-12T07:48:19.562Z,93769.34
2023-03-12T07:50:46.721Z,93764.78
2023-03-12T07:53:13.371Z,93763.84
2023-03-12T07:55:40.088Z,93767.91
2023-03-12T07:58:06.917Z,93773.34
2023-03-12T08:00:33.701Z,93769.28
2023-03-12T08:03:00.454Z,93772.84
2023-03-12T08:05:27.320Z,93769.69
2023-03-12T08:07:54.470Z,93777.94
2023-03-12T08:10:22.226Z,93774.44
2023-03-12T08:12:49.173Z,93772.69
2023-03-12T08:15:16.478Z,93779.84
2023-03-12T08:17:43.149Z,93787.88
2023-03-12T08:20:12.388Z,93793.84
2023-03-12T08:22:40.002Z,93788.97
2023-03-12T08:25:07.319Z,93796.19
2023-03-12T08:27:34.091Z,93793.59
2023-03-12T08:30:01.053Z,93790.84
2023-03-12T08:32:27.845Z,93795.25
2023-03-12T08:34:54.553Z,93792.25
2023-03-12T08:37:21.275Z,93788.09
2023-03-12T08:39:47.879Z,93792.59
2023-03-12T08:42:14.503Z,93790.19
2023-03-12T08:44:41.140Z,93786.09
2023-03-12T08:47:07.775Z,93780.44
2023-03-12T08:49:34.537Z,93772.28
2023-03-12T08:52:01.881Z,93784.34
2023-03-12T08:54:28.623Z,93781.34
2023-03-12T08:56:55.265Z,93785.06
2023-03-12T08:59:23.402Z,93786.91
2023-03-12T09:01:50.686Z,93785.47
2023-03-12T09:04:17.807Z,93788.22
2023-03-12T09:06:44.576Z,93784.41
2023-03-12T09:09:11.589Z,93785.28
2023-03-12T09:11:42.440Z,93793.03
2023-03-12T09:16:56.209Z,93788.47
2023-03-12T09:19:23.354Z,93782.19
2023-03-12T09:21:49.997Z,93791.03
2023-03-12T09:24:16.632Z,93782.22
2023-03-12T09:26:43.283Z,93788.28
2023-03-12T09:29:09.959Z,93794.06
2023-03-12T09:31:36.670Z,93792.06
2023-03-12T09:34:04.772Z,93789.94
2023-03-12T09:36:31.676Z,93793.44
2023-03-12T09:38:58.302Z,93791.34
2023-03-12T09:41:35.593Z,93787.91
2023-03-12T09:44:27.312Z,93803.25
2023-03-12T09:46:57.912Z,93793.81
2023-03-12T09:49:46.610Z,93792.38
2023-03-12T09:52:39.490Z,93800.13
2023-03-12T09:55:12.640Z,93800.03
2023-03-12T09:57:39.301Z,93792.81
2023-03-12T10:00:12.385Z,93799.06
2023-03-12T10:03:00.399Z,93800.47
2023-03-12T10:05:45.516Z,93805.66
2023-03-12T10:08:25.928Z,93814.69
2023-03-12T10:11:13.639Z,93814.41
2023-03-12T10:14:23.743Z,93821.66
2023-03-12T10:16:57.577Z,93831.78
2023-03-12T10:19:44.714Z,93822.63
2023-03-12T10:22:14.511Z,93822.31
2023-03-12T10:25:00.217Z,93819.22
2023-03-12T10:27:29.715Z,93816.16
2023-03-12T10:29:57.748Z,93808.19
2023-03-12T10:32:43.364Z,93823.22
2023-03-12T10:35:21.724Z,93818.44
2023-03-12T10:37:52.043Z,93811.72
2023-03-12T10:40:22.241Z,93802.66
2023-03-12T10:42:49.812Z,93809.25
2023-03-12T10:45:20.928Z,93819.94
2023-03-12T10:47:57.170Z,93825.56
2023-03-12T10:50:26.390Z,93824.34
2023-03-12T10:53:13.606Z,93817.91
2023-03-12T10:55:40.426Z,93826.66
2023-03-12T10:58:07.080Z,93827.00
2023-03-12T11:00:34.064Z,93830.59
2023-03-12T11:03:06.663Z,93832.97
2023-03-12T11:05:48.990Z,93837.66
2023-03-12T11:08:46.469Z,93834.88
2023-03-12T11:11:30.172Z,93839.59
2023-03-12T11:14:16.326Z,93842.28
2023-03-12T11:16:43.002Z,93841.50
2023-03-12T11:19:13.732Z,93848.91
2023-03-12T11:21:53.855Z,93839.38
2023-03-12T11:24:20.477Z,93846.81
2023-03-12T11:26:51.483Z,93848.38
2023-03-12T11:29:40.231Z,93847.94
2023-03-12T11:32:13.213Z,93851.25
2023-03-12T11:34:39.965Z,93849.25
2023-03-12T11:37:14.178Z,93848.03
2023-03-12T11:40:00.223Z,93839.75
2023-03-12T11:42:32.757Z,93843.03
2023-03-12T11:45:05.278Z,93844.03
2023-03-12T11:47:45.453Z,93842.00
2023-03-12T11:50:43.452Z,93840.25
2023-03-12T11:53:55.584Z,93850.78
2023-03-12T11:56:29.634Z,93849.06
2023-03-12T11:59:08.265Z,93844.66
2023-03-12T12:02:12.152Z,93838.41
2023-03-12T12:04:48.777Z,93842.16
2023-03-12T12:07:34.265Z,93846.09
2023-03-12T12:10:19.281Z,93841.53
2023-03-12T12:12:59.342Z,93837.59
2023-03-12T12:15:44.221Z,93842.44
2023-03-12T12:18:23.597Z,93841.03
2023-03-12T12:20:59.541Z,93843.09
2023-03-12T12:24:01.542Z,93847.16
2023-03-12T12:26:49.782Z,93838.22
2023-03-12T12:29:54.368Z,93829.09
2023-03-12T12:32:39.360Z,93838.59
2023-03-12T12:35:22.902Z,93837.59
2023-03-12T12:38:06.965Z,93841.06
2023-03-12T12:40:41.949Z,93836.22
2023-03-12T12:43:14.642Z,93845.34
2023-03-12T12:45:42.533Z,93832.63
2023-03-12T12:48:24.700Z,93837.44
2023-03-12T12:50:54.052Z,93834.34
2023-03-12T12:53:37.674Z,93834.66
2023-03-12T12:56:17.351Z,93828.22
2023-03-12T12:59:03.565Z,93823.88
2023-03-12T13:01:33.573Z,93822.38
2023-03-12T13:04:06.939Z,93823.34
2023-03-12T13:06:55.457Z,93825.31
2023-03-12T13:09:35.255Z,93826.94
2023-03-12T13:12:25.112Z,93832.66
2023-03-12T13:14:53.482Z,93827.34
2023-03-12T13:17:23.354Z,93834.13
2023-03-12T13:20:00.798Z,93824.72
2023-03-12T13:22:45.092Z,93845.94
2023-03-12T13:25:46.790Z,93844.56
2023-03-12T13:28:32.357Z,93841.56
2023-03-12T13:31:00.666Z,93836.31
2023-03-12T13:33:41.472Z,93834.78
2023-03-12T13:36:17.194Z,93837.41
2023-03-12T13:38:53.489Z,93833.03
2023-03-12T13:41:46.951Z,93839.16
2023-03-12T13:44:22.457Z,93832.88
2023-03-12T13:47:11.222Z,93833.78
2023-03-12T13:49:46.045Z,93829.75
2023-03-12T13:52:41.199Z,93827.94
2023-03-12T13:55:14.012Z,93828.97
2023-03-12T13:57:46.728Z,93829.38
2023-03-12T14:00:21.355Z,93827.22
2023-03-12T14:03:01.656Z,93825.59
2023-03-12T14:05:29.943Z,93821.69
2023-03-12T14:08:31.766Z,93832.25
2023-03-12T14:11:08.419Z,93835.09
2023-03-12T14:13:58.315Z,93826.63
2023-03-12T14:16:52.909Z,93826.16
2023-03-12T14:19:24.649Z,93822.13
2023-03-12T14:21:52.890Z,93829.47
2023-03-12T14:24:33.448Z,93820.69
2023-03-12T14:27:02.447Z,93823.63
2023-03-12T14:29:36.273Z,93827.09
2023-03-12T14:32:06.361Z,93820.34
2023-03-12T14:34:42.795Z,93819.56
2023-03-12T14:37:16.484Z,93822.84
2023-03-12T14:39:54.344Z,93831.97
2023-03-12T14:42:29.399Z,93826.63
2023-03-12T14:45:10.438Z,93834.31
2023-03-12T14:47:44.572Z,93830.66
2023-03-12T14:50:37.802Z,93834.44
2023-03-12T14:53:34.622Z,93846.06
2023-03-12T14:56:05.127Z,93854.84
2023-03-12T14:58:33.202Z,93856.28
2023-03-12T15:01:02.820Z,93847.72
2023-03-12T15:03:33.074Z,93851.78
2023-03-12T15:05:59.993Z,93846.72
2023-03-12T15:08:26.737Z,93838.50
2023-03-12T15:10:58.978Z,93851.00
2023-03-12T15:13:27.575Z,93844.41
2023-03-12T15:15:55.626Z,93845.50
2023-03-12T15:18:28.445Z,93854.53
2023-03-12T15:20:57.385Z,93858.19
2023-03-12T15:23:26.112Z,93844.03
2023-03-12T15:26:22.328Z,93861.50
2023-03-12T15:29:16.729Z,93852.56
2023-03-12T15:31:49.188Z,93857.13
2023-03-12T15:34:39.032Z,93850.94
2023-03-12T15:37:32.740Z,93840.84
2023-03-12T15:40:06.307Z,93836.16
2023-03-12T15:42:40.138Z,93835.69
2023-03-12T15:45:18.398Z,93827.13
2023-03-12T15:47:45.847Z,93831.78
2023-03-12T15:50:18.894Z,93822.38
2023-03-12T15:53:16.509Z,93826.47
2023-03-12T15:55:53.478Z,93824.03
2023-03-12T15:58:28.570Z,93808.03
2023-03-12T16:01:05.743Z,93820.75
2023-03-12T16:03:32.381Z,93822.97
2023-03-12T16:05:59.160Z,93828.63
2023-03-12T16:08:38.235Z,93829.88
2023-03-12T16:11:10.824Z,93830.38
2023-03-12T16:13:37.612Z,93828.03
2023-03-12T16:16:04.636Z,93840.59
2023-03-12T16:18:31.424Z,93854.72
2023-03-12T16:20:58.037Z,93847.81
2023-03-12T16:23:24.677Z,93851.47
2023-03-12T16:25:54.415Z,93854.13
2023-03-12T16:28:22.515Z,93867.16
2023-03-12T16:30:49.412Z,93859.34
2023-03-12T16:33:21.474Z,93854.00
2023-03-12T16:35:48.766Z,93854.47
2023-03-12T16:38:15.528Z,93858.25
2023-03-12T16:40:51.448Z,93867.47
2023-03-12T16:43:23.944Z,93861.34
2023-03-12T16:45:52.172Z,93852.31
2023-03-12T16:48:24.147Z,93852.75
2023-03-12T16:50:53.939Z,93847.44
2023-03-12T16:53:21.848Z,93847.28
2023-03-12T16:55:54.648Z,93844.16
2023-03-12T16:58:23.270Z,93835.84
2023-03-12T17:00:52.883Z,93840.88
2023-03-12T17:03:40.063Z,93839.53
2023-03-12T17:06:07.987Z,93847.38
2023-03-12T17:08:36.036Z,93859.31
2023-03-12T17:11:04.464Z,93868.44
2023-03-12T17:13:31.256Z,93853.53
2023-03-12T17:15:57.950Z,93867.66
2023-03-12T17:18:24.701Z,93866.31
2023-03-12T17:20:51.999Z,93865.19
2023-03-12T17:23:19.594Z,93863.94
2023-03-12T17:25:46.630Z,93872.41
2023-03-12T17:28:15.446Z,93868.97
2023-03-12T17:30:43.795Z,93860.66
2023-03-12T17:33:16.427Z,93861.59
2023-03-12T17:35:43.326Z,93865.50
2023-03-12T17:38:11.196Z,93861.28
2023-03-12T17:40:42.389Z,93866.16
2023-03-12T17:43:09.495Z,93874.16
2023-03-12T17:45:38.976Z,93863.34
2023-03-12T17:48:05.793Z,93869.13
2023-03-12T17:50:32.533Z,93856.44
2023-03-12T17:52:59.294Z,93851.56
2023-03-12T17:55:25.915Z,93855.19
2023-03-12T17:57:52.542Z,93862.41
2023-03-12T18:00:21.902Z,93861.94
2023-03-12T18:02:49.384Z,93867.25
2023-03-12T18:05:16.566Z,93857.09
2023-03-12T18:07:43.265Z,93866.69
2023-03-12T18:10:13.849Z,93874.69
2023-03-12T18:12:40.810Z,93871.25
2023-03-12T18:15:10.906Z,93875.47
2023-03-12T18:17:37.578Z,93879.56
2023-03-12T18:20:09.670Z,93892.56
2023-03-12T18:22:38.378Z,93892.13
2023-03-12T18:25:06.265Z,93883.81
2023-03-12T18:27:32.996Z,93878.03
2023-03-12T18:29:59.604Z,93878.34
2023-03-12T18:32:26.352Z,93886.19
2023-03-12T18:34:53.266Z,93892.13
2023-03-12T18:37:20.528Z,93885.56
2023-03-12T18:39:48.054Z,93897.31
2023-03-12T18:42:14.774Z,93898.72
2023-03-12T18:44:41.421Z,93897.47
2023-03-12T18:47:08.053Z,93905.78
2023-03-12T18:49:34.683Z,93902.97
2023-03-12T18:52:01.321Z,93905.94
2023-03-12T18:54:27.963Z,93908.59
2023-03-12T18:56:54.794Z,93914.88
2023-03-12T18:59:21.541Z,93916.16
2023-03-12T19:01:48.252Z,93911.75
2023-03-12T19:04:17.354Z,93923.66
2023-03-12T19:06:50.855Z,93917.38
2023-03-12T19:09:18.815Z,93923.81
2023-03-12T19:11:49.528Z,93917.38
2023-03-12T19:14:16.682Z,93918.47
2023-03-12T19:16:43.636Z,93922.09
2023-03-12T19:19:10.343Z,93905.31
2023-03-12T19:21:36.960Z,93922.09
2023-03-12T19:24:03.800Z,93927.72
2023-03-12T19:26:30.536Z,93932.75
2023-03-12T19:28:57.188Z,93927.72
2023-03-12T19:31:23.990Z,93922.72
2023-03-12T19:33:50.826Z,93914.88
2023-03-12T19:36:17.532Z,93927.75
2023-03-12T19:38:44.272Z,93934.78
2023-03-12T19:41:11.178Z,93925.69
2023-03-12T19:43:38.488Z,93924.13
2023-03-12T19:46:05.484Z,93943.25
2023-03-12T19:48:32.600Z,93929.28
2023-03-12T19:51:09.314Z,93931.94
2023-03-12T19:53:36.505Z,93936.81
2023-03-12T19:56:03.768Z,93934.44
2023-03-12T19:58:30.460Z,93933.81
2023-03-12T20:01:01.639Z,93937.25
2023-03-12T20:03:29.498Z,93946.38
2023-03-12T20:05:56.928Z,93931.78
2023-03-12T20:08:27.919Z,93939.00
2023-03-12T20:11:02.358Z,93940.09
2023-03-12T20:13:29.057Z,93932.56
2023-03-12T20:15:55.735Z,93931.16
2023-03-12T20:18:22.405Z,93931.94
2023-03-12T20:20:49.113Z,93936.94
2023-03-12T20:23:15.908Z,93934.28
2023-03-12T20:25:42.724Z,93933.97
2023-03-12T20:28:10.894Z,93933.38
2023-03-12T20:30:40.596Z,93939.47
2023-03-12T20:33:08.468Z,93937.91
2023-03-12T20:35:35.921Z,93925.47
2023-03-12T20:38:02.688Z,93931.75
2023-03-12T20:40:29.647Z,93946.03
2023-03-12T20:42:56.554Z,93944.94
2023-03-12T20:45:23.295Z,93926.28
2023-03-12T20:47:50.072Z,93940.53
2023-03-12T20:50:16.874Z,93944.47
2023-03-12T20:52:45.058Z,93937.56
2023-03-12T20:55:11.722Z,93935.03
2023-03-12T20:57:38.379Z,93945.88
2023-03-12T21:00:05.740Z,93948.22
2023-03-12T21:02:32.475Z,93940.84
2023-03-12T21:04:59.153Z,93948.22
2023-03-12T21:07:25.924Z,93953.84
2023-03-12T21:09:52.662Z,93943.81
2023-03-12T21:12:19.381Z,93937.41
2023-03-12T21:14:46.038Z,93945.25
2023-03-12T21:17:13.846Z,93952.94
2023-03-12T21:19:41.890Z,93946.97
2023-03-12T21:22:09.585Z,93955.13
2023-03-12T21:24:36.306Z,93954.03
2023-03-12T21:27:03.087Z,93949.94
2023-03-12T21:29:29.748Z,93949.97
2023-03-12T21:31:57.480Z,93961.72
2023-03-12T21:34:24.330Z,93958.72
2023-03-12T21:36:50.967Z,93946.34
2023-03-12T21:39:17.988Z,93957.63
2023-03-12T21:41:44.616Z,93961.56
2023-03-12T21:44:11.252Z,93956.84
2023-03-12T21:46:37.956Z,93943.97
2023-03-12T21:49:04.829Z,93958.91
2023-03-12T21:51:31.518Z,93954.66
2023-03-12T21:53:58.944Z,93954.38
2023-03-12T21:56:28.160Z,93951.34
2023-03-12T21:58:56.924Z,93945.41
2023-03-12T22:01:24.132Z,93934.75
2023-03-12T22:03:50.947Z,93931.31
2023-03-12T22:06:17.626Z,93938.69
2023-03-12T22:08:47.067Z,93932.88
2023-03-12T22:11:14.301Z,93924.88
2023-03-12T22:13:41.040Z,93931.47
2023-03-12T22:16:09.016Z,93928.50
2023-03-12T22:18:40.856Z,93932.44
2023-03-12T22:21:08.533Z,93929.28
2023-03-12T22:23:36.798Z,93918.00
2023-03-12T22:26:05.556Z,93916.75
2023-03-12T22:28:33.005Z,93921.78
2023-03-12T22:31:05.876Z,93913.59
2023-03-12T22:33:33.854Z,93910.63
2023-03-12T22:36:00.506Z,93910.03
2023-03-12T22:38:27.191Z,93902.66
2023-03-12T22:40:55.741Z,93902.81
2023-03-12T22:43:25.512Z,93891.06
2023-03-12T22:45:55.496Z,93881.50
2023-03-12T22:48:22.314Z,93880.88
2023-03-12T22:50:55.535Z,93878.06
2023-03-12T22:53:22.460Z,93880.06
2023-03-12T22:56:05.366Z,93871.28
2023-03-12T22:58:32.282Z,93867.22
2023-03-12T23:01:08.556Z,93857.81
2023-03-12T23:03:36.899Z,93857.97
2023-03-12T23:06:04.300Z,93854.69
2023-03-12T23:08:31.007Z,93842.75
2023-03-12T23:11:00.577Z,93843.06
2023-03-12T23:13:29.468Z,93830.09
2023-03-12T23:16:04.894Z,93829.63
2023-03-12T23:18:32.772Z,93826.00
2023-03-12T23:21:05.954Z,93827.13
2023-03-12T23:23:33.408Z,93822.56
2023-03-12T23:26:01.191Z,93820.69
2023-03-12T23:28:29.118Z,93818.03
2023-03-12T23:31:07.841Z,93814.88
2023-03-12T23:33:35.413Z,93812.69
2023-03-12T23:36:06.980Z,93808.94
2023-03-12T23:38:37.384Z,93806.28
2023-03-12T23:41:18.885Z,93803.75
2023-03-12T23:43:45.711Z,93793.56
2023-03-12T23:46:13.728Z,93808.63
2023-03-12T23:48:41.150Z,93802.19
2023-03-12T23:51:09.151Z,93799.06
2023-03-12T23:53:36.476Z,93805.00
2023-03-12T23:56:05.472Z,93802.53
2023-03-12T23:58:32.899Z,93808.94
